createdAt,value
2023-01-15T00:02:09.038Z,96787.88
2023-01-15T00:04:38.766Z,96783.72
2023-01-15T00:07:07.117Z,96777.63
2023-01-15T00:09:35.611Z,96778.59
2023-01-15T00:12:04.142Z,96773.47
2023-01-15T00:14:32.511Z,96764.88
2023-01-15T00:17:00.795Z,96770.97
2023-01-15T00:19:29.020Z,96756.09
2023-01-15T00:21:59.162Z,96746.34
2023-01-15T00:24:41.454Z,96751.13
2023-01-15T00:27:29.084Z,96737.06
2023-01-15T00:29:57.364Z,96739.88
2023-01-15T00:32:27.824Z,96719.69
2023-01-15T00:34:56.244Z,96716.03
2023-01-15T00:37:26.015Z,96703.81
2023-01-15T00:39:54.705Z,96706.47
2023-01-15T00:42:23.004Z,96692.22
2023-01-15T00:44:51.256Z,96688.28
2023-01-15T00:47:19.687Z,96689.94
2023-01-15T00:49:49.556Z,96688.59
2023-01-15T00:52:17.949Z,96685.16
2023-01-15T00:54:48.370Z,96691.09
2023-01-15T00:57:16.637Z,96693.72
2023-01-15T00:59:44.895Z,96703.84
2023-01-15T01:02:13.480Z,96698.00
2023-01-15T01:04:41.930Z,96702.00
2023-01-15T01:07:10.457Z,96694.88
2023-01-15T01:09:38.868Z,96700.34
2023-01-15T01:12:09.184Z,96704.47
2023-01-15T01:14:38.217Z,96693.22
2023-01-15T01:17:06.634Z,96700.03
2023-01-15T01:19:35.028Z,96695.84
2023-01-15T01:22:03.344Z,96691.91
2023-01-15T01:24:31.761Z,96699.69
2023-01-15T01:27:00.046Z,96698.53
2023-01-15T01:29:29.688Z,96687.44
2023-01-15T01:31:57.990Z,96700.16
2023-01-15T01:34:26.315Z,96699.84
2023-01-15T01:36:54.632Z,96697.69
2023-01-15T01:39:24.493Z,96694.22
2023-01-15T01:41:52.841Z,96694.56
2023-01-15T01:45:11.148Z,96686.47
2023-01-15T01:47:39.455Z,96686.63
2023-01-15T01:50:13.779Z,96674.69
2023-01-15T01:52:46.883Z,96678.34
2023-01-15T01:55:18.328Z,96674.53
2023-01-15T01:57:48.318Z,96669.91
2023-01-15T02:00:18.990Z,96664.44
2023-01-15T02:02:49.454Z,96664.28
2023-01-15T02:05:29.350Z,96648.56
2023-01-15T02:07:57.888Z,96652.72
2023-01-15T02:10:26.293Z,96653.03
2023-01-15T02:13:02.767Z,96653.19
2023-01-15T02:15:37.278Z,96655.16
2023-01-15T02:18:14.172Z,96651.03
2023-01-15T02:20:47.744Z,96639.47
2023-01-15T02:23:46.766Z,96625.44
2023-01-15T02:26:58.385Z,96629.38
2023-01-15T02:29:38.399Z,96631.06
2023-01-15T02:32:19.854Z,96619.47
2023-01-15T02:34:54.243Z,96617.81
2023-01-15T02:37:28.659Z,96613.19
2023-01-15T02:40:00.550Z,96614.53
2023-01-15T02:42:32.382Z,96608.22
2023-01-15T02:45:04.159Z,96600.97
2023-01-15T02:47:38.153Z,96595.84
2023-01-15T02:50:12.296Z,96587.75
2023-01-15T02:52:45.760Z,96585.09
2023-01-15T02:55:19.496Z,96585.91
2023-01-15T02:57:51.804Z,96579.16
2023-01-15T03:00:23.065Z,96580.78
2023-01-15T03:02:57.802Z,96575.81
2023-01-15T03:05:32.567Z,96561.13
2023-01-15T03:08:03.656Z,96568.38
2023-01-15T03:10:41.830Z,96558.97
2023-01-15T03:13:17.404Z,96553.69
2023-01-15T03:16:12.088Z,96541.47
2023-01-15T03:18:48.996Z,96542.63
2023-01-15T03:21:22.786Z,96540.13
2023-01-15T03:23:55.051Z,96533.19
2023-01-15T03:26:23.546Z,96534.84
2023-01-15T03:28:53.721Z,96539.16
2023-01-15T03:31:22.349Z,96541.97
2023-01-15T03:33:50.651Z,96539.31
2023-01-15T03:36:18.861Z,96528.56
2023-01-15T03:38:50.737Z,96532.38
2023-01-15T03:41:26.776Z,96534.19
2023-01-15T03:44:12.920Z,96522.94
2023-01-15T03:46:54.536Z,96526.41
2023-01-15T03:49:36.955Z,96519.31
2023-01-15T03:52:12.087Z,96514.03
2023-01-15T03:54:49.949Z,96538.81
2023-01-15T03:57:29.411Z,96522.28
2023-01-15T04:00:02.931Z,96515.03
2023-01-15T04:02:32.013Z,96516.84
2023-01-15T04:05:00.744Z,96518.31
2023-01-15T04:07:29.447Z,96527.75
2023-01-15T04:09:57.877Z,96510.06
2023-01-15T04:12:28.085Z,96500.16
2023-01-15T04:14:56.336Z,96501.00
2023-01-15T04:17:25.966Z,96500.84
2023-01-15T04:19:54.244Z,96495.53
2023-01-15T04:22:22.503Z,96493.53
2023-01-15T04:24:50.846Z,96489.94
2023-01-15T04:27:19.118Z,96495.22
2023-01-15T04:29:47.388Z,96502.81
2023-01-15T04:32:15.695Z,96501.66
2023-01-15T04:34:45.345Z,96496.34
2023-01-15T04:37:13.652Z,96493.56
2023-01-15T04:39:41.894Z,96494.38
2023-01-15T04:42:30.441Z,96494.56
2023-01-15T04:44:58.933Z,96489.25
2023-01-15T04:47:27.413Z,96477.03
2023-01-15T04:49:57.059Z,96485.78
2023-01-15T04:52:25.303Z,96462.16
2023-01-15T04:54:56.011Z,96470.09
2023-01-15T04:57:24.664Z,96469.94
2023-01-15T04:59:52.984Z,96460.53
2023-01-15T05:02:21.312Z,96458.22
2023-01-15T05:04:50.736Z,96453.72
2023-01-15T05:07:20.416Z,96451.91
2023-01-15T05:09:51.609Z,96459.69
2023-01-15T05:12:19.861Z,96466.78
2023-01-15T05:14:48.128Z,96467.63
2023-01-15T05:17:16.388Z,96466.63
2023-01-15T05:19:44.635Z,96462.31
2023-01-15T05:22:13.023Z,96458.03
2023-01-15T05:24:42.846Z,96472.91
2023-01-15T05:27:11.171Z,96479.03
2023-01-15T05:29:39.691Z,96468.44
2023-01-15T05:32:09.621Z,96461.50
2023-01-15T05:34:38.371Z,96470.09
2023-01-15T05:37:06.790Z,96460.53
2023-01-15T05:39:35.197Z,96452.59
2023-01-15T05:42:05.193Z,96454.22
2023-01-15T05:44:33.494Z,96457.88
2023-01-15T05:47:05.909Z,96444.00
2023-01-15T05:49:34.704Z,96445.31
2023-01-15T05:52:04.024Z,96446.47
2023-01-15T05:54:35.367Z,96446.31
2023-01-15T05:57:05.540Z,96445.63
2023-01-15T05:59:34.735Z,96444.00
2023-01-15T06:02:02.998Z,96454.41
2023-01-15T06:04:31.349Z,96454.41
2023-01-15T06:06:59.904Z,96456.19
2023-01-15T06:09:29.595Z,96441.84
2023-01-15T06:11:58.442Z,96440.19
2023-01-15T06:14:28.177Z,96447.94
2023-01-15T06:16:56.452Z,96444.50
2023-01-15T06:19:24.725Z,96436.41
2023-01-15T06:21:53.079Z,96426.63
2023-01-15T06:24:21.414Z,96420.53
2023-01-15T06:26:49.774Z,96413.56
2023-01-15T06:29:20.379Z,96416.09
2023-01-15T06:31:50.183Z,96413.44
2023-01-15T06:34:18.672Z,96423.19
2023-01-15T06:36:47.090Z,96423.50
2023-01-15T06:39:16.384Z,96415.75
2023-01-15T06:42:02.150Z,96414.59
2023-01-15T06:44:59.420Z,96411.78
2023-01-15T06:47:29.194Z,96406.19
2023-01-15T06:49:59.433Z,96411.63
2023-01-15T06:52:29.554Z,96401.38
2023-01-15T06:54:58.208Z,96406.03
2023-01-15T06:57:26.590Z,96395.09
2023-01-15T06:59:54.884Z,96400.06
2023-01-15T07:02:23.306Z,96400.59
2023-01-15T07:04:53.259Z,96399.41
2023-01-15T07:07:22.332Z,96398.41
2023-01-15T07:09:50.773Z,96399.09
2023-01-15T07:12:19.129Z,96390.19
2023-01-15T07:14:47.677Z,96398.75
2023-01-15T07:17:16.375Z,96396.78
2023-01-15T07:19:45.317Z,96389.50
2023-01-15T07:22:14.988Z,96384.38
2023-01-15T07:24:43.287Z,96374.16
2023-01-15T07:27:11.605Z,96378.44
2023-01-15T07:29:39.882Z,96378.13
2023-01-15T07:32:08.249Z,96368.50
2023-01-15T07:34:36.518Z,96377.44
2023-01-15T07:37:04.795Z,96370.03
2023-01-15T07:39:34.530Z,96367.22
2023-01-15T07:42:20.050Z,96376.44
2023-01-15T07:45:06.055Z,96377.44
2023-01-15T07:47:51.668Z,96374.31
2023-01-15T07:50:23.257Z,96368.00
2023-01-15T07:52:53.360Z,96368.00
2023-01-15T07:55:24.089Z,96366.53
2023-01-15T07:57:53.735Z,96359.13
2023-01-15T08:00:25.321Z,96359.75
2023-01-15T08:02:53.812Z,96361.72
2023-01-15T08:05:22.173Z,96360.75
2023-01-15T08:07:50.571Z,96359.25
2023-01-15T08:10:19.713Z,96356.09
2023-01-15T08:13:08.802Z,96360.25
2023-01-15T08:15:44.024Z,96357.44
2023-01-15T08:18:12.582Z,96343.56
2023-01-15T08:20:40.866Z,96357.44
2023-01-15T08:23:10.654Z,96351.16
2023-01-15T08:25:39.015Z,96356.78
2023-01-15T08:28:08.612Z,96354.63
2023-01-15T08:30:36.902Z,96357.41
2023-01-15T08:33:05.698Z,96356.41
2023-01-15T08:35:34.813Z,96346.66
2023-01-15T08:38:07.070Z,96349.13
2023-01-15T08:40:36.339Z,96353.09
2023-01-15T08:43:04.643Z,96352.09
2023-01-15T08:45:34.314Z,96348.78
2023-01-15T08:48:02.587Z,96348.94
2023-01-15T08:50:30.887Z,96346.13
2023-01-15T08:52:59.172Z,96349.78
2023-01-15T08:55:27.481Z,96333.19
2023-01-15T08:57:55.749Z,96340.44
2023-01-15T09:00:25.005Z,96335.31
2023-01-15T09:02:54.591Z,96341.78
2023-01-15T09:05:22.835Z,96331.53
2023-01-15T09:07:51.175Z,96323.63
2023-01-15T09:10:19.648Z,96330.88
2023-01-15T09:12:48.410Z,96333.00
2023-01-15T09:15:17.095Z,96324.38
2023-01-15T09:17:45.669Z,96322.88
2023-01-15T09:20:16.300Z,96325.81
2023-01-15T09:22:44.569Z,96315.72
2023-01-15T09:25:12.875Z,96323.78
2023-01-15T09:27:41.175Z,96320.16
2023-01-15T09:30:12.527Z,96319.09
2023-01-15T09:32:40.792Z,96312.91
2023-01-15T09:35:10.331Z,96303.81
2023-01-15T09:37:40.015Z,96298.47
2023-01-15T09:40:14.115Z,96290.47
2023-01-15T09:42:52.390Z,96288.06
2023-01-15T09:45:26.442Z,96282.38
2023-01-15T09:48:34.544Z,96274.81
2023-01-15T09:51:16.601Z,96277.84
2023-01-15T09:54:05.325Z,96269.47
2023-01-15T09:56:36.195Z,96258.50
2023-01-15T09:59:14.977Z,96261.16
2023-01-15T10:01:44.599Z,96253.66
2023-01-15T10:04:30.670Z,96245.69
2023-01-15T10:07:07.648Z,96242.88
2023-01-15T10:09:40.770Z,96240.81
2023-01-15T10:12:34.713Z,96242.31
2023-01-15T10:15:37.937Z,96242.97
2023-01-15T10:18:08.853Z,96255.19
2023-01-15T10:20:54.439Z,96258.78
2023-01-15T10:23:43.725Z,96272.38
2023-01-15T10:26:30.155Z,96283.31
2023-01-15T10:29:04.630Z,96329.38
2023-01-15T10:31:51.113Z,96340.09
2023-01-15T10:35:06.128Z,96347.34
2023-01-15T10:37:41.860Z,96361.91
2023-01-15T10:40:47.410Z,96384.31
2023-01-15T10:43:24.594Z,96402.44
2023-01-15T10:45:57.601Z,96401.94
2023-01-15T10:48:31.921Z,96431.22
2023-01-15T10:51:05.588Z,96449.91
2023-01-15T10:53:41.912Z,96441.41
2023-01-15T10:56:17.154Z,96450.47
2023-01-15T10:58:52.030Z,96449.09
2023-01-15T11:01:23.667Z,96471.13
2023-01-15T11:03:52.118Z,96467.06
2023-01-15T11:06:23.666Z,96470.78
2023-01-15T11:09:12.386Z,96457.28
2023-01-15T11:12:03.269Z,96451.75
2023-01-15T11:14:55.972Z,96488.00
2023-01-15T11:17:43.620Z,96488.72
2023-01-15T11:20:26.971Z,96503.56
2023-01-15T11:22:57.227Z,96508.19
2023-01-15T11:25:31.699Z,96516.78
2023-01-15T11:28:03.849Z,96514.00
2023-01-15T11:30:37.516Z,96525.13
2023-01-15T11:33:23.114Z,96522.63
2023-01-15T11:35:53.062Z,96519.03
2023-01-15T11:38:23.133Z,96514.44
2023-01-15T11:40:55.583Z,96521.72
2023-01-15T11:43:44.477Z,96540.59
2023-01-15T11:46:46.886Z,96535.34
2023-01-15T11:49:37.165Z,96542.28
2023-01-15T11:52:08.320Z,96534.81
2023-01-15T11:54:40.727Z,96548.06
2023-01-15T11:57:10.772Z,96549.09
2023-01-15T11:59:39.614Z,96551.75
2023-01-15T12:02:25.267Z,96570.09
2023-01-15T12:04:56.689Z,96569.09
2023-01-15T12:07:26.919Z,96577.88
2023-01-15T12:10:21.715Z,96574.56
2023-01-15T12:13:04.581Z,96572.75
2023-01-15T12:15:45.353Z,96575.75
2023-01-15T12:18:34.966Z,96589.97
2023-01-15T12:21:05.968Z,96588.31
2023-01-15T12:24:04.105Z,96592.63
2023-01-15T12:26:34.335Z,96601.19
2023-01-15T12:29:08.030Z,96612.63
2023-01-15T12:31:41.446Z,96620.28
2023-01-15T12:34:21.653Z,96636.97
2023-01-15T12:36:54.438Z,96633.50
2023-01-15T12:39:29.396Z,96632.16
2023-01-15T12:42:20.891Z,96648.22
2023-01-15T12:45:04.141Z,96658.97
2023-01-15T12:47:41.279Z,96671.56
2023-01-15T12:50:39.648Z,96666.13
2023-01-15T12:53:16.931Z,96671.06
2023-01-15T12:55:52.988Z,96680.19
2023-01-15T12:58:36.403Z,96693.25
2023-01-15T13:01:14.872Z,96690.41
2023-01-15T13:03:59.640Z,96703.31
2023-01-15T13:06:29.967Z,96712.25
2023-01-15T13:09:04.395Z,96714.25
2023-01-15T13:11:33.660Z,96712.59
2023-01-15T13:14:02.120Z,96719.06
2023-01-15T13:16:44.638Z,96714.41
2023-01-15T13:19:33.466Z,96718.38
2023-01-15T13:22:09.595Z,96714.72
2023-01-15T13:25:25.515Z,96731.94
2023-01-15T13:28:12.678Z,96738.22
2023-01-15T13:30:59.011Z,96748.66
2023-01-15T13:33:33.557Z,96757.25
2023-01-15T13:36:12.960Z,96770.63
2023-01-15T13:38:45.741Z,96768.97
2023-01-15T13:41:36.727Z,96787.47
2023-01-15T13:44:05.231Z,96796.38
2023-01-15T13:46:33.687Z,96803.50
2023-01-15T13:49:02.020Z,96812.59
2023-01-15T13:51:37.332Z,96816.38
2023-01-15T13:54:16.048Z,96835.34
2023-01-15T13:56:45.727Z,96848.22
2023-01-15T13:59:44.133Z,96828.38
2023-01-15T14:02:27.325Z,96827.66
2023-01-15T14:04:56.471Z,96836.38
2023-01-15T14:07:36.743Z,96851.75
2023-01-15T14:10:40.488Z,96857.81
2023-01-15T14:13:29.978Z,96868.22
2023-01-15T14:16:13.182Z,96876.31
2023-01-15T14:19:09.379Z,96871.84
2023-01-15T14:21:50.032Z,96872.16
2023-01-15T14:24:51.639Z,96883.72
2023-01-15T14:27:50.911Z,96890.97
2023-01-15T14:30:49.227Z,96905.16
2023-01-15T14:33:28.366Z,96906.81
2023-01-15T14:35:56.885Z,96910.63
2023-01-15T14:38:28.849Z,96908.28
2023-01-15T14:41:01.355Z,96925.94
2023-01-15T14:43:34.993Z,96915.59
2023-01-15T14:46:16.284Z,96935.09
2023-01-15T14:48:44.732Z,96928.13
2023-01-15T14:51:16.605Z,96933.06
2023-01-15T14:53:48.831Z,96933.72
2023-01-15T14:56:22.458Z,96941.78
2023-01-15T14:58:58.489Z,96932.06
2023-01-15T15:01:38.267Z,96926.78
2023-01-15T15:04:23.931Z,96928.59
2023-01-15T15:06:56.267Z,96933.13
2023-01-15T15:09:32.622Z,96929.34
2023-01-15T15:12:20.021Z,96919.09
2023-01-15T15:14:59.079Z,96932.00
2023-01-15T15:17:38.238Z,96926.84
2023-01-15T15:20:24.691Z,96944.53
2023-01-15T15:23:00.829Z,96936.63
2023-01-15T15:25:33.913Z,96943.84
2023-01-15T15:28:07.304Z,96950.78
2023-01-15T15:30:42.321Z,96943.84
2023-01-15T15:33:19.062Z,96945.00
2023-01-15T15:35:50.832Z,96943.41
2023-01-15T15:38:22.197Z,96942.41
2023-01-15T15:40:54.296Z,96937.44
2023-01-15T15:43:46.252Z,96943.47
2023-01-15T15:46:52.259Z,96940.16
2023-01-15T15:49:21.147Z,96948.25
2023-01-15T15:51:51.284Z,96958.25
2023-01-15T15:54:22.511Z,96954.78
2023-01-15T15:56:57.973Z,96965.78
2023-01-15T15:59:33.369Z,96960.81
2023-01-15T16:02:17.063Z,96962.38
2023-01-15T16:04:50.758Z,96963.91
2023-01-15T16:07:26.702Z,96969.03
2023-01-15T16:09:59.927Z,96959.31
2023-01-15T16:12:32.634Z,96956.81
2023-01-15T16:15:01.785Z,96961.25
2023-01-15T16:17:32.223Z,96965.19
2023-01-15T16:20:01.082Z,96966.81
2023-01-15T16:22:29.521Z,96960.34
2023-01-15T16:24:59.244Z,96965.63
2023-01-15T16:27:32.946Z,96969.09
2023-01-15T16:30:01.794Z,96969.09
2023-01-15T16:32:35.792Z,96981.75
2023-01-15T16:35:09.246Z,96987.72
2023-01-15T16:37:38.262Z,96987.03
2023-01-15T16:40:10.299Z,96995.09
2023-01-15T16:42:43.094Z,96999.25
2023-01-15T16:45:23.352Z,96995.25
2023-01-15T16:48:19.164Z,97003.00
2023-01-15T16:50:47.617Z,97007.59
2023-01-15T16:53:39.240Z,97003.44
2023-01-15T16:56:26.696Z,97014.00
2023-01-15T16:58:55.143Z,97025.94
2023-01-15T17:01:35.760Z,97026.91
2023-01-15T17:04:17.620Z,97030.41
2023-01-15T17:06:46.061Z,97033.84
2023-01-15T17:09:16.283Z,97038.59
2023-01-15T17:11:44.694Z,97037.75
2023-01-15T17:14:22.573Z,97039.41
2023-01-15T17:17:19.085Z,97040.41
2023-01-15T17:19:49.616Z,97039.56
2023-01-15T17:22:24.749Z,97035.13
2023-01-15T17:24:55.829Z,97041.09
2023-01-15T17:27:24.922Z,97034.84
2023-01-15T17:29:53.634Z,97037.31
2023-01-15T17:32:27.481Z,97047.03
2023-01-15T17:34:58.490Z,97034.00
2023-01-15T17:37:26.815Z,97044.53
2023-01-15T17:39:55.350Z,97049.81
2023-01-15T17:42:23.732Z,97049.81
2023-01-15T17:44:52.030Z,97056.78
2023-01-15T17:47:20.376Z,97053.44
2023-01-15T17:49:48.715Z,97053.44
2023-01-15T17:52:21.533Z,97044.84
2023-01-15T17:55:07.257Z,97045.97
2023-01-15T17:57:53.188Z,97053.19
2023-01-15T18:00:38.969Z,97048.38
2023-01-15T18:03:24.930Z,97059.06
2023-01-15T18:05:53.329Z,97053.25
2023-01-15T18:08:23.081Z,97062.00
2023-01-15T18:10:51.668Z,97067.44
2023-01-15T18:13:20.014Z,97063.66
2023-01-15T18:15:48.329Z,97066.28
2023-01-15T18:18:18.164Z,97062.00
2023-01-15T18:20:46.849Z,97056.59
2023-01-15T18:23:15.228Z,97056.72
2023-01-15T18:25:47.512Z,97055.75
2023-01-15T18:28:16.582Z,97047.13
2023-01-15T18:30:45.000Z,97042.69
2023-01-15T18:33:13.328Z,97051.59
2023-01-15T18:35:41.752Z,97047.28
2023-01-15T18:38:10.076Z,97038.56
2023-01-15T18:40:38.411Z,97042.97
2023-01-15T18:43:25.512Z,97052.69
2023-01-15T18:46:11.071Z,97040.50
2023-01-15T18:48:39.438Z,97041.63
2023-01-15T18:51:11.731Z,97044.41
2023-01-15T18:53:40.134Z,97043.41
2023-01-15T18:56:09.137Z,97041.63
2023-01-15T18:58:38.903Z,97035.50
2023-01-15T19:01:10.503Z,97034.00
2023-01-15T19:03:38.936Z,97035.78
2023-01-15T19:06:11.900Z,97031.50
2023-01-15T19:08:40.246Z,97031.66
2023-01-15T19:11:13.415Z,97024.69
2023-01-15T19:13:43.133Z,97023.03
2023-01-15T19:16:29.832Z,97024.69
2023-01-15T19:18:58.204Z,97028.59
2023-01-15T19:21:26.513Z,97020.81
2023-01-15T19:23:54.930Z,97021.81
2023-01-15T19:26:23.263Z,97017.50
2023-01-15T19:28:52.970Z,97027.50
2023-01-15T19:31:40.516Z,97012.78
2023-01-15T19:34:32.562Z,97020.19
2023-01-15T19:37:00.432Z,97017.81
2023-01-15T19:39:29.788Z,97017.13
2023-01-15T19:42:25.231Z,97019.06
2023-01-15T19:45:12.503Z,97011.63
2023-01-15T19:47:59.898Z,97007.56
2023-01-15T19:50:36.863Z,97011.19
2023-01-15T19:53:06.351Z,97009.41
2023-01-15T19:55:35.249Z,97000.78
2023-01-15T19:58:06.367Z,97000.66
2023-01-15T20:00:37.738Z,96989.56
2023-01-15T20:03:09.922Z,96990.69
2023-01-15T20:05:39.632Z,96989.31
2023-01-15T20:08:09.272Z,96987.75
2023-01-15T20:10:38.514Z,96985.53
2023-01-15T20:13:24.266Z,96989.28
2023-01-15T20:15:53.933Z,96983.47
2023-01-15T20:18:23.525Z,96976.81
2023-01-15T20:20:51.823Z,96970.03
2023-01-15T20:23:20.128Z,96963.09
2023-01-15T20:25:51.199Z,96969.19
2023-01-15T20:28:19.566Z,96963.09
2023-01-15T20:30:47.995Z,96964.06
2023-01-15T20:33:17.625Z,96957.16
2023-01-15T20:35:45.931Z,96954.78
2023-01-15T20:38:14.221Z,96961.75
2023-01-15T20:40:42.496Z,96952.31
2023-01-15T20:43:29.191Z,96957.47
2023-01-15T20:46:09.418Z,96953.72
2023-01-15T20:48:56.464Z,96956.75
2023-01-15T20:51:24.761Z,96955.94
2023-01-15T20:53:53.320Z,96947.34
2023-01-15T20:56:21.609Z,96958.03
2023-01-15T20:58:51.437Z,96945.13
2023-01-15T21:01:19.878Z,96957.75
2023-01-15T21:03:49.828Z,96950.81
2023-01-15T21:06:18.188Z,96943.34
2023-01-15T21:08:46.780Z,96948.75
2023-01-15T21:11:15.154Z,96937.53
2023-01-15T21:13:45.057Z,96939.47
2023-01-15T21:16:15.847Z,96928.38
2023-01-15T21:18:45.233Z,96926.72
2023-01-15T21:21:18.209Z,96921.59
2023-01-15T21:23:46.581Z,96925.50
2023-01-15T21:26:16.123Z,96920.38
2023-01-15T21:28:45.398Z,96921.44
2023-01-15T21:31:15.442Z,96913.56
2023-01-15T21:33:43.836Z,96914.66
2023-01-15T21:36:15.957Z,96908.84
2023-01-15T21:38:44.203Z,96915.94
2023-01-15T21:41:15.399Z,96914.25
2023-01-15T21:44:02.135Z,96904.84
2023-01-15T21:46:30.643Z,96899.84
2023-01-15T21:49:00.293Z,96906.09
2023-01-15T21:51:30.885Z,96890.44
2023-01-15T21:54:00.419Z,96886.25
2023-01-15T21:56:29.009Z,96885.44
2023-01-15T21:58:57.307Z,96886.69
2023-01-15T22:01:26.066Z,96886.81
2023-01-15T22:03:54.521Z,96874.91
2023-01-15T22:06:22.867Z,96872.44
2023-01-15T22:08:55.227Z,96861.50
2023-01-15T22:11:24.189Z,96868.28
2023-01-15T22:13:53.653Z,96869.25
2023-01-15T22:16:21.924Z,96863.16
2023-01-15T22:18:50.630Z,96852.22
2023-01-15T22:21:18.961Z,96862.31
2023-01-15T22:23:49.026Z,96854.97
2023-01-15T22:26:20.644Z,96852.22
2023-01-15T22:28:49.671Z,96851.41
2023-01-15T22:31:18.068Z,96855.81
2023-01-15T22:33:47.079Z,96842.81
2023-01-15T22:36:17.013Z,96839.47
2023-01-15T22:38:46.840Z,96828.28
2023-01-15T22:41:15.177Z,96828.41
2023-01-15T22:43:44.836Z,96821.47
2023-01-15T22:46:14.908Z,96813.72
2023-01-15T22:48:43.249Z,96809.44
2023-01-15T22:51:11.565Z,96812.06
2023-01-15T22:53:39.847Z,96810.56
2023-01-15T22:56:08.898Z,96812.34
2023-01-15T22:58:42.339Z,96807.22
2023-01-15T23:01:12.427Z,96804.03
2023-01-15T23:03:41.514Z,96809.56
2023-01-15T23:06:13.141Z,96809.97
2023-01-15T23:08:41.381Z,96798.34
2023-01-15T23:11:11.620Z,96787.00
2023-01-15T23:13:41.852Z,96776.47
2023-01-15T23:16:11.870Z,96775.66
2023-01-15T23:18:40.293Z,96764.19
2023-01-15T23:21:11.431Z,96764.31
2023-01-15T23:23:40.727Z,96758.06
2023-01-15T23:26:11.499Z,96752.00
2023-01-15T23:28:40.144Z,96745.78
2023-01-15T23:31:09.074Z,96738.88
2023-01-15T23:33:38.814Z,96733.75
2023-01-15T23:36:09.686Z,96733.03
2023-01-15T23:38:38.030Z,96725.16
2023-01-15T23:41:10.200Z,96714.78
2023-01-15T23:43:57.235Z,96722.00
2023-01-15T23:46:35.190Z,96717.03
2023-01-15T23:49:09.113Z,96725.19
2023-01-15T23:51:38.621Z,96720.88
2023-01-15T23:54:08.659Z,96708.84
2023-01-15T23:56:37.000Z,96705.50
2023-01-15T23:59:05.298Z,96704.56
